Time,TemperatureF,DewpointF,PressureIn,WindDirection,WindDirectionDegrees,WindSpeedMPH,WindSpeedGustMPH,Humidity,HourlyPrecipIn,Conditions,Clouds,dailyrainin,SoftwareType,DateUTC
2013-08-25 00:01:00,58.4,56.1,30.35,West,267,0.0,0.0,92,0.00,CLR,,0.00,WeatherDisplay:10.37,2013-08-25 04:01:00,
2013-08-25 00:02:00,58.2,55.9,30.36,West,267,0.0,0.0,92,0.00,CLR,,0.00,WeatherDisplay:10.37,2013-08-25 04:02:00,
2013-08-25 00:03:00,58.4,56.4,30.36,West,267,0.0,0.0,93,0.00,CLR,,0.00,WeatherDisplay:10.37,2013-08-25 04:03:00,
2013-08-25 00:04:00,58.4,56.4,30.36,West,267,0.0,0.0,93,0.00,CLR,,0.00,WeatherDisplay:10.37,2013-08-25 04:04:00,
2013-08-25 00:07:00,58.2,56.2,30.36,West,267,0.0,0.0,93,0.00,CLR,,0.00,WeatherDisplay:10.37,2013-08-25 04:07:00,
2013-08-25 00:12:00,58.3,56.3,30.35,West,267,0.0,0.0,93,0.00,CLR,,0.00,WeatherDisplay:10.37,2013-08-25 04:12:00,
2013-08-25 00:17:00,58.2,56.2,30.35,West,267,0.0,0.0,93,0.00,CLR,,0.00,WeatherDisplay:10.37,2013-08-25 04:17:00,
2013-08-25 00:22:00,58.2,56.2,30.35,West,267,0.0,0.0,93,0.00,CLR,,0.00,WeatherDisplay:10.37,2013-08-25 04:22:00,
2013-08-25 00:27:00,58.1,56.1,30.35,West,267,0.0,0.0,93,0.00,CLR,,0.00,WeatherDisplay:10.37,2013-08-25 04:27:00,
2013-08-25 00:32:00,57.9,55.9,30.35,West,267,0.0,0.0,93,0.00,CLR,,0.00,WeatherDisplay:10.37,2013-08-25 04:32:00,
2013-08-25 00:37:00,57.7,55.7,30.35,West,267,0.0,0.0,93,0.00,CLR,,0.00,WeatherDisplay:10.37,2013-08-25 04:37:00,
2013-08-25 00:42:00,57.7,55.7,30.35,West,267,0.0,0.0,93,0.00,CLR,,0.00,WeatherDisplay:10.37,2013-08-25 04:42:00,
2013-08-25 00:47:00,57.6,55.6,30.35,West,267,0.0,0.0,93,0.00,CLR,,0.00,WeatherDisplay:10.37,2013-08-25 04:47:00,
2013-08-25 00:52:00,57.2,55.2,30.35,West,267,0.0,0.0,93,0.00,CLR,,0.00,WeatherDisplay:10.37,2013-08-25 04:52:00,
2013-08-25 00:58:00,57.1,55.1,30.35,West,267,0.0,0.0,93,0.00,CLR,,0.00,WeatherDisplay:10.37,2013-08-25 04:58:00,
2013-08-25 01:03:00,56.8,55.1,30.34,West,267,0.0,0.0,94,0.00,CLR,,0.00,WeatherDisplay:10.37,2013-08-25 05:03:00,
2013-08-25 01:08:00,56.8,55.1,30.35,West,267,0.0,0.0,94,0.00,CLR,,0.00,WeatherDisplay:10.37,2013-08-25 05:08:00,
2013-08-25 01:13:00,56.7,55.0,30.35,West,267,0.0,0.0,94,0.00,CLR,,0.00,WeatherDisplay:10.37,2013-08-25 05:13:00,
2013-08-25 01:18:00,56.6,54.9,30.35,West,267,0.0,0.0,94,0.00,CLR,,0.00,WeatherDisplay:10.37,2013-08-25 05:18:00,
2013-08-25 01:23:00,56.5,54.8,30.34,West,267,0.0,0.0,94,0.00,CLR,,0.00,WeatherDisplay:10.37,2013-08-25 05:23:00,
2013-08-25 01:28:00,56.4,54.7,30.35,West,267,0.0,0.0,94,0.00,CLR,,0.00,WeatherDisplay:10.37,2013-08-25 05:28:00,
2013-08-25 01:33:00,56.4,54.7,30.35,West,267,0.0,0.0,94,0.00,CLR,,0.00,WeatherDisplay:10.37,2013-08-25 05:33:00,
2013-08-25 01:38:00,56.2,54.5,30.35,West,267,0.0,0.0,94,0.00,CLR,,0.00,WeatherDisplay:10.37,2013-08-25 05:38:00,
2013-08-25 01:43:00,56.2,54.5,30.35,West,267,0.0,0.0,94,0.00,CLR,,0.00,WeatherDisplay:10.37,2013-08-25 05:43:00,
2013-08-25 01:48:00,56.0,54.3,30.35,West,267,0.0,0.0,94,0.00,CLR,,0.00,WeatherDisplay:10.37,2013-08-25 05:48:00,
2013-08-25 01:53:00,56.0,54.3,30.34,West,267,0.0,0.0,94,0.00,CLR,,0.00,WeatherDisplay:10.37,2013-08-25 05:53:00,
2013-08-25 01:59:00,55.8,54.1,30.34,West,267,0.0,0.0,94,0.00,CLR,,0.00,WeatherDisplay:10.37,2013-08-25 05:59:00,
2013-08-25 02:04:00,55.8,54.1,30.34,West,267,0.0,0.0,94,0.00,CLR,,0.00,WeatherDisplay:10.37,2013-08-25 06:04:00,
2013-08-25 02:10:00,55.7,54.0,30.34,West,267,0.0,0.0,94,0.00,CLR,,0.00,WeatherDisplay:10.37,2013-08-25 06:10:00,
2013-08-25 02:15:00,55.7,54.3,30.34,West,267,0.0,0.0,95,0.00,CLR,,0.00,WeatherDisplay:10.37,2013-08-25 06:15:00,
2013-08-25 02:20:00,55.5,54.1,30.34,West,267,0.0,0.0,95,0.00,CLR,,0.00,WeatherDisplay:10.37,2013-08-25 06:20:00,
2013-08-25 02:25:00,55.5,54.1,30.34,West,267,0.0,0.0,95,0.00,CLR,,0.00,WeatherDisplay:10.37,2013-08-25 06:25:00,
2013-08-25 02:30:00,55.5,54.1,30.34,West,267,0.0,0.0,95,0.00,CLR,,0.00,WeatherDisplay:10.37,2013-08-25 06:30:00,
2013-08-25 02:35:00,55.2,53.8,30.34,West,267,0.0,0.0,95,0.00,CLR,,0.00,WeatherDisplay:10.37,2013-08-25 06:35:00,
2013-08-25 02:40:00,55.1,53.7,30.34,West,267,0.0,0.0,95,0.00,CLR,,0.00,WeatherDisplay:10.37,2013-08-25 06:40:00,
2013-08-25 02:45:00,55.2,53.8,30.34,West,267,0.0,0.0,95,0.00,CLR,,0.00,WeatherDisplay:10.37,2013-08-25 06:45:00,
2013-08-25 02:50:00,55.1,53.7,30.34,West,267,0.0,0.0,95,0.00,CLR,,0.00,WeatherDisplay:10.37,2013-08-25 06:50:00,
2013-08-25 02:55:00,55.3,53.9,30.34,West,267,0.0,0.0,95,0.00,CLR,,0.00,WeatherDisplay:10.37,2013-08-25 06:55:00,
2013-08-25 03:00:00,55.1,53.7,30.34,West,267,0.0,0.0,95,0.00,CLR,,0.00,WeatherDisplay:10.37,2013-08-25 07:00:00,
2013-08-25 03:06:00,55.3,53.9,30.34,West,267,0.0,0.0,95,0.00,CLR,,0.00,WeatherDisplay:10.37,2013-08-25 07:06:00,
2013-08-25 03:11:00,55.1,53.7,30.34,West,267,0.0,0.0,95,0.00,CLR,,0.00,WeatherDisplay:10.37,2013-08-25 07:11:00,
2013-08-25 03:16:00,55.2,53.8,30.34,West,267,0.0,0.0,95,0.00,CLR,,0.00,WeatherDisplay:10.37,2013-08-25 07:16:00,
2013-08-25 03:21:00,55.1,53.7,30.34,West,267,0.0,0.0,95,0.00,CLR,,0.00,WeatherDisplay:10.37,2013-08-25 07:21:00,
2013-08-25 03:26:00,55.0,53.6,30.34,West,267,0.0,0.0,95,0.00,CLR,,0.00,WeatherDisplay:10.37,2013-08-25 07:26:00,
2013-08-25 03:31:00,54.7,53.3,30.34,West,267,0.0,0.0,95,0.00,CLR,,0.00,WeatherDisplay:10.37,2013-08-25 07:31:00,
2013-08-25 03:36:00,54.7,53.3,30.34,West,267,0.0,0.0,95,0.00,CLR,,0.00,WeatherDisplay:10.37,2013-08-25 07:36:00,
2013-08-25 03:41:00,54.6,53.2,30.35,West,267,0.0,0.0,95,0.00,CLR,,0.00,WeatherDisplay:10.37,2013-08-25 07:41:00,
2013-08-25 03:46:00,54.7,53.3,30.35,West,267,0.0,0.0,95,0.00,CLR,,0.00,WeatherDisplay:10.37,2013-08-25 07:46:00,
2013-08-25 03:51:00,54.6,53.2,30.35,West,267,0.0,0.0,95,0.00,CLR,,0.00,WeatherDisplay:10.37,2013-08-25 07:51:00,
2013-08-25 03:56:00,54.4,53.0,30.35,West,267,0.0,0.0,95,0.00,CLR,,0.00,WeatherDisplay:10.37,2013-08-25 07:56:00,
2013-08-25 04:01:00,54.3,52.9,30.35,West,267,0.0,0.0,95,0.00,CLR,,0.00,WeatherDisplay:10.37,2013-08-25 08:01:00,
2013-08-25 04:06:00,54.3,52.9,30.35,West,267,0.0,0.0,95,0.00,CLR,,0.00,WeatherDisplay:10.37,2013-08-25 08:06:00,
2013-08-25 04:11:00,54.3,52.9,30.35,West,267,0.0,0.0,95,0.00,CLR,,0.00,WeatherDisplay:10.37,2013-08-25 08:11:00,
2013-08-25 04:16:00,54.1,52.7,30.36,West,267,0.0,0.0,95,0.00,CLR,,0.00,WeatherDisplay:10.37,2013-08-25 08:16:00,
2013-08-25 04:21:00,54.1,52.7,30.36,West,267,0.0,0.0,95,0.00,CLR,,0.00,WeatherDisplay:10.37,2013-08-25 08:21:00,
2013-08-25 04:26:00,54.0,52.6,30.36,West,267,0.0,0.0,95,0.00,CLR,,0.00,WeatherDisplay:10.37,2013-08-25 08:26:00,
2013-08-25 04:31:00,54.0,52.6,30.36,West,267,0.0,0.0,95,0.00,CLR,,0.00,WeatherDisplay:10.37,2013-08-25 08:31:00,
2013-08-25 04:36:00,54.0,52.6,30.36,West,267,0.0,0.0,95,0.00,CLR,,0.00,WeatherDisplay:10.37,2013-08-25 08:36:00,
2013-08-25 04:41:00,53.9,52.5,30.36,West,267,0.0,0.0,95,0.00,CLR,,0.00,WeatherDisplay:10.37,2013-08-25 08:41:00,
2013-08-25 04:46:00,53.6,52.2,30.37,West,267,0.0,0.0,95,0.00,CLR,,0.00,WeatherDisplay:10.37,2013-08-25 08:46:00,
2013-08-25 04:51:00,53.4,52.0,30.37,West,267,0.0,0.0,95,0.00,CLR,,0.00,WeatherDisplay:10.37,2013-08-25 08:51:00,
2013-08-25 04:56:00,53.3,52.2,30.37,West,267,0.0,0.0,96,0.00,CLR,,0.00,WeatherDisplay:10.37,2013-08-25 08:56:00,
2013-08-25 05:01:00,53.3,52.2,30.37,West,267,0.0,0.0,96,0.00,CLR,,0.00,WeatherDisplay:10.37,2013-08-25 09:01:00,
2013-08-25 05:06:00,53.2,52.1,30.37,West,267,0.0,0.0,96,0.00,CLR,,0.00,WeatherDisplay:10.37,2013-08-25 09:06:00,
2013-08-25 05:11:00,53.2,52.1,30.37,West,267,0.0,0.0,96,0.00,CLR,,0.00,WeatherDisplay:10.37,2013-08-25 09:11:00,
2013-08-25 05:16:00,53.0,51.9,30.37,West,267,0.0,0.0,96,0.00,CLR,,0.00,WeatherDisplay:10.37,2013-08-25 09:16:00,
2013-08-25 05:21:00,52.9,51.8,30.37,West,267,0.0,0.0,96,0.00,CLR,,0.00,WeatherDisplay:10.37,2013-08-25 09:21:00,
2013-08-25 05:26:00,52.8,51.7,30.37,West,267,0.0,0.0,96,0.00,CLR,,0.00,WeatherDisplay:10.37,2013-08-25 09:26:00,
2013-08-25 05:31:00,52.8,51.7,30.37,West,267,0.0,0.0,96,0.00,CLR,,0.00,WeatherDisplay:10.37,2013-08-25 09:31:00,
2013-08-25 05:36:00,52.9,51.8,30.38,West,267,0.0,0.0,96,0.00,CLR,,0.00,WeatherDisplay:10.37,2013-08-25 09:36:00,
2013-08-25 05:41:00,52.8,51.7,30.38,West,267,0.0,0.0,96,0.00,CLR,,0.00,WeatherDisplay:10.37,2013-08-25 09:41:00,
2013-08-25 05:46:00,52.8,51.7,30.38,West,267,0.0,0.0,96,0.00,CLR,,0.00,WeatherDisplay:10.37,2013-08-25 09:46:00,
2013-08-25 05:51:00,52.8,51.7,30.38,West,267,0.0,0.0,96,0.00,CLR,,0.00,WeatherDisplay:10.37,2013-08-25 09:51:00,
2013-08-25 05:56:00,52.8,51.7,30.38,West,267,0.0,0.0,96,0.00,CLR,,0.00,WeatherDisplay:10.37,2013-08-25 09:56:00,
2013-08-25 06:01:00,52.7,51.6,30.38,West,267,0.0,0.0,96,0.00,CLR,,0.00,WeatherDisplay:10.37,2013-08-25 10:01:00,
2013-08-25 06:06:00,52.7,51.6,30.38,West,267,0.0,0.0,96,0.00,CLR,,0.00,WeatherDisplay:10.37,2013-08-25 10:06:00,
2013-08-25 06:11:00,52.8,51.7,30.38,West,267,0.0,0.0,96,0.00,CLR,,0.00,WeatherDisplay:10.37,2013-08-25 10:11:00,
2013-08-25 06:16:00,52.8,51.7,30.38,West,267,0.0,0.0,96,0.00,CLR,,0.00,WeatherDisplay:10.37,2013-08-25 10:16:00,
2013-08-25 06:21:00,52.7,51.6,30.38,West,267,0.0,0.0,96,0.00,CLR,,0.00,WeatherDisplay:10.37,2013-08-25 10:21:00,
2013-08-25 06:26:00,53.0,51.9,30.38,West,267,0.0,0.0,96,0.00,CLR,,0.00,WeatherDisplay:10.37,2013-08-25 10:26:00,
2013-08-25 06:31:00,53.2,52.1,30.39,West,267,0.0,0.0,96,0.00,CLR,,0.00,WeatherDisplay:10.37,2013-08-25 10:31:00,
2013-08-25 06:36:00,53.3,52.2,30.39,West,267,0.0,0.0,96,0.00,CLR,,0.00,WeatherDisplay:10.37,2013-08-25 10:36:00,
2013-08-25 06:41:00,53.6,52.5,30.39,West,267,0.0,0.0,96,0.00,CLR,,0.00,WeatherDisplay:10.37,2013-08-25 10:41:00,
2013-08-25 06:47:00,53.7,52.6,30.40,West,267,0.0,0.0,96,0.00,CLR,,0.00,WeatherDisplay:10.37,2013-08-25 10:47:00,
2013-08-25 06:52:00,53.8,52.7,30.40,West,267,0.0,0.0,96,0.00,CLR,,0.00,WeatherDisplay:10.37,2013-08-25 10:52:00,
2013-08-25 06:57:00,53.9,52.8,30.40,West,267,0.0,0.0,96,0.00,CLR,,0.00,WeatherDisplay:10.37,2013-08-25 10:57:00,
2013-08-25 07:02:00,53.8,52.7,30.40,West,267,0.0,0.0,96,0.00,CLR,,0.00,WeatherDisplay:10.37,2013-08-25 11:02:00,
2013-08-25 07:07:00,54.0,52.9,30.40,West,267,0.0,0.0,96,0.00,CLR,,0.00,WeatherDisplay:10.37,2013-08-25 11:07:00,
2013-08-25 07:12:00,54.3,53.2,30.40,West,267,0.0,0.0,96,0.00,CLR,,0.00,WeatherDisplay:10.37,2013-08-25 11:12:00,
2013-08-25 07:17:00,54.1,53.0,30.40,West,267,0.0,0.0,96,0.00,CLR,,0.00,WeatherDisplay:10.37,2013-08-25 11:17:00,
2013-08-25 07:22:00,54.2,53.1,30.41,West,267,0.0,0.0,96,0.00,CLR,,0.00,WeatherDisplay:10.37,2013-08-25 11:22:00,
2013-08-25 07:27:00,54.7,53.6,30.41,West,267,0.0,0.0,96,0.00,CLR,,0.00,WeatherDisplay:10.37,2013-08-25 11:27:00,
2013-08-25 07:32:00,54.9,53.8,30.40,West,267,0.0,0.0,96,0.00,CLR,,0.00,WeatherDisplay:10.37,2013-08-25 11:32:00,
2013-08-25 07:37:00,55.0,53.9,30.40,West,267,0.0,0.0,96,0.00,CLR,,0.00,WeatherDisplay:10.37,2013-08-25 11:37:00,
2013-08-25 07:42:00,55.1,54.0,30.40,West,267,0.0,0.0,96,0.00,CLR,,0.00,WeatherDisplay:10.37,2013-08-25 11:42:00,
2013-08-25 07:47:00,55.6,54.5,30.40,West,267,0.0,0.0,96,0.00,CLR,,0.00,WeatherDisplay:10.37,2013-08-25 11:47:00,
2013-08-25 07:52:00,55.8,54.7,30.39,West,267,0.0,0.0,96,0.00,CLR,,0.00,WeatherDisplay:10.37,2013-08-25 11:52:00,
2013-08-25 07:57:00,56.0,54.9,30.39,West,267,0.0,0.0,96,0.00,CLR,,0.00,WeatherDisplay:10.37,2013-08-25 11:57:00,
2013-08-25 08:02:00,56.0,54.9,30.40,West,267,0.0,0.0,96,0.00,CLR,,0.00,WeatherDisplay:10.37,2013-08-25 12:02:00,
2013-08-25 08:07:00,56.3,55.2,30.39,West,267,0.0,0.0,96,0.00,CLR,,0.00,WeatherDisplay:10.37,2013-08-25 12:07:00,
2013-08-25 08:12:00,56.5,55.4,30.40,West,267,0.0,0.0,96,0.00,CLR,,0.00,WeatherDisplay:10.37,2013-08-25 12:12:00,
2013-08-25 08:17:00,56.7,55.6,30.40,West,267,0.0,0.0,96,0.00,CLR,,0.00,WeatherDisplay:10.37,2013-08-25 12:17:00,
2013-08-25 08:22:00,57.0,55.9,30.40,West,267,0.0,0.0,96,0.00,CLR,,0.00,WeatherDisplay:10.37,2013-08-25 12:22:00,
2013-08-25 08:27:00,57.3,56.2,30.40,West,267,0.0,0.0,96,0.00,CLR,,0.00,WeatherDisplay:10.37,2013-08-25 12:27:00,
2013-08-25 08:32:00,57.8,56.7,30.40,West,267,0.0,0.0,96,0.00,CLR,,0.00,WeatherDisplay:10.37,2013-08-25 12:32:00,
2013-08-25 08:37:00,58.0,56.9,30.40,West,267,0.0,0.0,96,0.00,CLR,,0.00,WeatherDisplay:10.37,2013-08-25 12:37:00,
2013-08-25 08:42:00,58.6,57.5,30.40,West,267,0.0,0.0,96,0.00,CLR,,0.00,WeatherDisplay:10.37,2013-08-25 12:42:00,
2013-08-25 08:47:00,58.7,57.6,30.40,West,267,0.0,0.0,96,0.00,CLR,,0.00,WeatherDisplay:10.37,2013-08-25 12:47:00,
2013-08-25 08:52:00,59.2,58.1,30.40,West,267,0.0,0.0,96,0.00,CLR,,0.00,WeatherDisplay:10.37,2013-08-25 12:52:00,
2013-08-25 08:57:00,59.4,58.0,30.40,West,267,0.0,0.0,95,0.00,CLR,,0.00,WeatherDisplay:10.37,2013-08-25 12:57:00,
2013-08-25 09:02:00,59.9,58.5,30.40,West,267,0.0,0.0,95,0.00,CLR,,0.00,WeatherDisplay:10.37,2013-08-25 13:02:00,
2013-08-25 09:07:00,60.1,58.7,30.40,West,267,0.0,0.0,95,0.00,CLR,,0.00,WeatherDisplay:10.37,2013-08-25 13:07:00,
2013-08-25 09:12:00,60.7,59.3,30.40,West,267,0.0,0.0,95,0.00,CLR,,0.00,WeatherDisplay:10.37,2013-08-25 13:12:00,
2013-08-25 09:17:00,61.3,59.6,30.40,West,267,0.0,0.0,94,0.00,CLR,,0.00,WeatherDisplay:10.37,2013-08-25 13:17:00,
2013-08-25 09:22:00,62.0,60.0,30.40,West,267,0.0,0.0,93,0.00,CLR,,0.00,WeatherDisplay:10.37,2013-08-25 13:22:00,
2013-08-25 09:27:00,62.9,60.6,30.40,West,267,0.0,0.0,92,0.00,CLR,,0.00,WeatherDisplay:10.37,2013-08-25 13:27:00,
2013-08-25 09:32:00,63.8,61.2,30.39,West,267,0.0,0.0,91,0.00,CLR,,0.00,WeatherDisplay:10.37,2013-08-25 13:32:00,
2013-08-25 09:37:00,65.1,62.1,30.39,West,267,0.0,0.0,90,0.00,CLR,,0.00,WeatherDisplay:10.37,2013-08-25 13:37:00,
2013-08-25 09:42:00,65.7,62.1,30.39,West,267,0.0,0.0,88,0.00,CLR,,0.00,WeatherDisplay:10.37,2013-08-25 13:42:00,
2013-08-25 09:47:00,66.9,62.3,30.39,West,267,0.0,0.0,85,0.00,CLR,,0.00,WeatherDisplay:10.37,2013-08-25 13:47:00,
2013-08-25 09:52:00,67.5,61.8,30.39,West,267,0.0,0.0,82,0.00,CLR,,0.00,WeatherDisplay:10.37,2013-08-25 13:52:00,
2013-08-25 09:57:00,67.8,62.1,30.39,West,267,0.0,0.0,82,0.00,CLR,,0.00,WeatherDisplay:10.37,2013-08-25 13:57:00,
2013-08-25 10:02:00,68.6,62.6,30.39,West,267,0.0,0.0,81,0.00,CLR,,0.00,WeatherDisplay:10.37,2013-08-25 14:02:00,
2013-08-25 10:07:00,70.0,63.2,30.39,West,267,0.0,0.0,79,0.00,CLR,,0.00,WeatherDisplay:10.37,2013-08-25 14:07:00,
2013-08-25 10:12:00,70.9,63.4,30.38,West,267,0.0,0.0,77,0.00,CLR,,0.00,WeatherDisplay:10.37,2013-08-25 14:12:00,
2013-08-25 10:17:00,71.8,62.7,30.39,West,267,0.0,0.0,73,0.00,CLR,,0.00,WeatherDisplay:10.37,2013-08-25 14:17:00,
2013-08-25 10:22:00,72.4,62.9,30.38,West,267,0.0,0.0,72,0.00,CLR,,0.00,WeatherDisplay:10.37,2013-08-25 14:22:00,
2013-08-25 10:27:00,72.8,63.3,30.38,West,267,0.0,0.0,72,0.00,CLR,,0.00,WeatherDisplay:10.37,2013-08-25 14:27:00,
2013-08-25 10:32:00,73.2,63.7,30.38,West,267,0.0,0.0,72,0.00,CLR,,0.00,WeatherDisplay:10.37,2013-08-25 14:32:00,
2013-08-25 10:37:00,73.4,61.8,30.38,NNE,20,0.0,0.0,67,0.00,CLR,,0.00,WeatherDisplay:10.37,2013-08-25 14:37:00,
2013-08-25 10:42:00,74.5,61.6,30.38,WSW,243,3.5,0.0,64,0.00,CLR,,0.00,WeatherDisplay:10.37,2013-08-25 14:42:00,
2013-08-25 10:47:00,74.7,60.9,30.37,SW,236,3.5,3.5,62,0.00,CLR,,0.00,WeatherDisplay:10.37,2013-08-25 14:47:00,
2013-08-25 10:52:00,75.3,60.0,30.37,SW,236,0.0,0.0,59,0.00,CLR,,0.00,WeatherDisplay:10.37,2013-08-25 14:52:00,
2013-08-25 10:57:00,75.8,61.0,30.37,SW,236,0.0,0.0,60,0.00,CLR,,0.00,WeatherDisplay:10.37,2013-08-25 14:57:00,
2013-08-25 11:02:00,76.6,60.8,30.37,NNW,340,2.5,2.5,58,0.00,CLR,,0.00,WeatherDisplay:10.37,2013-08-25 15:02:00,
2013-08-25 11:07:00,76.8,59.4,30.37,West,277,0.9,0.0,55,0.00,CLR,,0.00,WeatherDisplay:10.37,2013-08-25 15:07:00,
2013-08-25 11:12:00,76.4,58.0,30.36,South,188,3.5,3.5,53,0.00,CLR,,0.00,WeatherDisplay:10.37,2013-08-25 15:12:00,
2013-08-25 11:17:00,76.2,59.9,30.36,WSW,244,4.8,4.8,57,0.00,CLR,,0.00,WeatherDisplay:10.37,2013-08-25 15:17:00,
2013-08-25 11:22:00,76.1,58.8,30.36,SSW,198,0.0,0.0,55,0.00,CLR,,0.00,WeatherDisplay:10.37,2013-08-25 15:22:00,
2013-08-25 11:27:00,76.2,57.3,30.36,SSW,198,0.0,0.0,52,0.00,CLR,,0.00,WeatherDisplay:10.37,2013-08-25 15:27:00,
2013-08-25 11:32:00,76.8,56.8,30.35,West,270,3.6,3.6,50,0.00,CLR,,0.00,WeatherDisplay:10.37,2013-08-25 15:32:00,
2013-08-25 11:37:00,77.2,58.2,30.35,West,275,3.5,0.0,52,0.00,CLR,,0.00,WeatherDisplay:10.37,2013-08-25 15:37:00,
2013-08-25 11:42:00,77.5,56.3,30.35,South,178,0.0,0.0,48,0.00,CLR,,0.00,WeatherDisplay:10.37,2013-08-25 15:42:00,
2013-08-25 11:47:00,77.4,55.6,30.35,SSE,148,3.3,3.3,47,0.00,CLR,,0.00,WeatherDisplay:10.37,2013-08-25 15:47:00,
2013-08-25 11:52:00,77.5,58.0,30.35,SSW,202,1.4,1.4,51,0.00,CLR,,0.00,WeatherDisplay:10.37,2013-08-25 15:52:00,
2013-08-25 11:57:00,77.4,57.3,30.34,West,264,3.8,3.8,50,0.00,CLR,,0.00,WeatherDisplay:10.37,2013-08-25 15:57:00,
2013-08-25 12:02:00,77.2,55.4,30.34,West,265,4.0,4.0,47,0.00,CLR,,0.00,WeatherDisplay:10.37,2013-08-25 16:02:00,
2013-08-25 12:07:00,77.2,56.6,30.34,North,349,2.3,2.3,49,0.00,CLR,,0.00,WeatherDisplay:10.37,2013-08-25 16:07:00,
2013-08-25 12:12:00,77.0,55.8,30.34,North,4,0.0,0.0,48,0.00,CLR,,0.00,WeatherDisplay:10.37,2013-08-25 16:12:00,
2013-08-25 12:17:00,76.9,55.2,30.34,WNW,284,4.8,4.8,47,0.00,CLR,,0.00,WeatherDisplay:10.37,2013-08-25 16:17:00,
2013-08-25 12:22:00,77.1,55.4,30.33,SSE,168,0.0,0.0,47,0.00,CLR,,0.00,WeatherDisplay:10.37,2013-08-25 16:22:00,
2013-08-25 12:27:00,77.3,54.9,30.33,NNE,27,4.9,4.9,46,0.00,CLR,,0.00,WeatherDisplay:10.37,2013-08-25 16:27:00,
2013-08-25 12:32:00,77.2,54.2,30.33,North,7,5.8,5.8,45,0.00,CLR,,0.00,WeatherDisplay:10.37,2013-08-25 16:32:00,
2013-08-25 12:37:00,77.5,54.5,30.33,NNW,337,2.3,0.0,45,0.00,CLR,,0.00,WeatherDisplay:10.37,2013-08-25 16:37:00,
2013-08-25 12:42:00,78.2,55.8,30.32,North,359,0.0,0.0,46,0.00,CLR,,0.00,WeatherDisplay:10.37,2013-08-25 16:42:00,
2013-08-25 12:47:00,78.3,55.9,30.32,NE,40,0.0,0.0,46,0.00,CLR,,0.00,WeatherDisplay:10.37,2013-08-25 16:47:00,
2013-08-25 12:52:00,77.9,54.9,30.32,SW,219,1.2,0.0,45,0.00,CLR,,0.00,WeatherDisplay:10.37,2013-08-25 16:52:00,
2013-08-25 12:57:00,78.0,57.3,30.32,SSW,208,3.5,3.5,49,0.00,CLR,,0.00,WeatherDisplay:10.37,2013-08-25 16:57:00,
2013-08-25 13:02:00,77.7,55.3,30.32,NW,320,4.6,4.6,46,0.00,CLR,,0.00,WeatherDisplay:10.37,2013-08-25 17:02:00,
2013-08-25 13:07:00,77.5,54.5,30.32,West,281,8.1,8.1,45,0.00,CLR,,0.00,WeatherDisplay:10.37,2013-08-25 17:07:00,
2013-08-25 13:12:00,77.6,55.2,30.32,NW,313,0.0,0.0,46,0.00,CLR,,0.00,WeatherDisplay:10.37,2013-08-25 17:12:00,
2013-08-25 13:17:00,77.5,55.1,30.31,NW,308,5.5,5.5,46,0.00,CLR,,0.00,WeatherDisplay:10.37,2013-08-25 17:17:00,
2013-08-25 13:22:00,77.8,55.4,30.31,NNW,343,0.0,0.0,46,0.00,CLR,,0.00,WeatherDisplay:10.37,2013-08-25 17:22:00,
2013-08-25 13:27:00,78.3,56.4,30.32,SW,219,9.4,9.4,47,0.00,CLR,,0.00,WeatherDisplay:10.37,2013-08-25 17:27:00,
2013-08-25 13:32:00,78.5,55.4,30.32,West,280,8.5,8.5,45,0.00,CLR,,0.00,WeatherDisplay:10.37,2013-08-25 17:32:00,
2013-08-25 13:37:00,78.5,55.4,30.32,WSW,250,5.8,5.8,45,0.00,CLR,,0.00,WeatherDisplay:10.37,2013-08-25 17:37:00,
2013-08-25 13:42:00,78.6,55.5,30.32,NNW,335,6.9,6.9,45,0.00,CLR,,0.00,WeatherDisplay:10.37,2013-08-25 17:42:00,
2013-08-25 13:47:00,78.8,55.7,30.32,West,267,2.4,2.4,45,0.00,CLR,,0.00,WeatherDisplay:10.37,2013-08-25 17:47:00,
2013-08-25 13:52:00,78.7,56.2,30.31,West,272,8.1,8.1,46,0.00,CLR,,0.00,WeatherDisplay:10.37,2013-08-25 17:52:00,
2013-08-25 13:57:00,78.7,53.7,30.31,SW,230,9.2,9.2,42,0.00,CLR,,0.00,WeatherDisplay:10.37,2013-08-25 17:57:00,
2013-08-25 14:02:00,78.8,55.1,30.31,SW,227,4.4,4.4,44,0.00,CLR,,0.00,WeatherDisplay:10.37,2013-08-25 18:02:00,
2013-08-25 14:07:00,78.9,55.8,30.31,SW,216,1.2,0.0,45,0.00,CLR,,0.00,WeatherDisplay:10.37,2013-08-25 18:07:00,
2013-08-25 14:12:00,79.2,55.4,30.31,NW,326,4.6,4.6,44,0.00,CLR,,0.00,WeatherDisplay:10.37,2013-08-25 18:12:00,
2013-08-25 14:17:00,79.5,55.1,30.31,West,274,8.0,8.0,43,0.00,CLR,,0.00,WeatherDisplay:10.37,2013-08-25 18:17:00,
2013-08-25 14:22:00,79.3,56.2,30.31,West,265,9.2,9.2,45,0.00,CLR,,0.00,WeatherDisplay:10.37,2013-08-25 18:22:00,
2013-08-25 14:27:00,79.2,53.5,30.30,WSW,258,2.9,2.9,41,0.00,CLR,,0.00,WeatherDisplay:10.37,2013-08-25 18:27:00,
2013-08-25 14:32:00,79.3,56.2,30.30,WNW,284,6.9,6.9,45,0.00,CLR,,0.00,WeatherDisplay:10.37,2013-08-25 18:32:00,
2013-08-25 14:37:00,79.5,55.7,30.30,West,268,6.9,6.9,44,0.00,CLR,,0.00,WeatherDisplay:10.37,2013-08-25 18:37:00,
2013-08-25 14:42:00,79.6,56.4,30.30,NE,48,4.7,4.7,45,0.00,CLR,,0.00,WeatherDisplay:10.37,2013-08-25 18:42:00,
2013-08-25 14:47:00,79.7,55.9,30.30,NNW,328,4.8,4.8,44,0.00,CLR,,0.00,WeatherDisplay:10.37,2013-08-25 18:47:00,
2013-08-25 14:52:00,79.6,56.4,30.30,NW,315,6.7,6.7,45,0.00,CLR,,0.00,WeatherDisplay:10.37,2013-08-25 18:52:00,
2013-08-25 14:57:00,79.5,55.7,30.29,West,274,4.2,4.2,44,0.00,CLR,,0.00,WeatherDisplay:10.37,2013-08-25 18:57:00,
2013-08-25 15:02:00,79.8,58.4,30.29,NE,49,1.4,1.4,48,0.00,CLR,,0.00,WeatherDisplay:10.37,2013-08-25 19:02:00,
2013-08-25 15:07:00,79.5,58.1,30.29,SW,226,10.0,10.0,48,0.00,CLR,,0.00,WeatherDisplay:10.37,2013-08-25 19:07:00,
2013-08-25 15:12:00,79.4,55.6,30.28,West,265,9.2,9.2,44,0.00,CLR,,0.00,WeatherDisplay:10.37,2013-08-25 19:12:00,
2013-08-25 15:17:00,79.4,56.9,30.28,SW,229,1.1,1.1,46,0.00,CLR,,0.00,WeatherDisplay:10.37,2013-08-25 19:17:00,
2013-08-25 15:22:00,79.3,55.5,30.28,NNW,328,3.5,3.5,44,0.00,CLR,,0.00,WeatherDisplay:10.37,2013-08-25 19:22:00,
2013-08-25 15:27:00,79.4,55.6,30.28,WSW,241,7.3,7.3,44,0.00,CLR,,0.00,WeatherDisplay:10.37,2013-08-25 19:27:00,
2013-08-25 15:32:00,79.4,52.3,30.28,WSW,254,0.0,0.0,39,0.00,CLR,,0.00,WeatherDisplay:10.37,2013-08-25 19:32:00,
2013-08-25 15:37:00,79.6,55.8,30.28,WSW,241,6.9,6.9,44,0.00,CLR,,0.00,WeatherDisplay:10.37,2013-08-25 19:37:00,
2013-08-25 15:42:00,79.5,54.4,30.28,West,267,9.8,9.8,42,0.00,CLR,,0.00,WeatherDisplay:10.37,2013-08-25 19:42:00,
2013-08-25 15:47:00,79.7,53.9,30.28,WNW,287,6.9,6.9,41,0.00,CLR,,0.00,WeatherDisplay:10.37,2013-08-25 19:47:00,
2013-08-25 15:52:00,79.5,53.8,30.28,West,270,0.0,0.0,41,0.00,CLR,,0.00,WeatherDisplay:10.37,2013-08-25 19:52:00,
2013-08-25 15:57:00,79.6,53.2,30.27,WNW,288,4.6,4.6,40,0.00,CLR,,0.00,WeatherDisplay:10.37,2013-08-25 19:57:00,
2013-08-25 16:02:00,79.6,55.8,30.27,West,267,10.9,10.9,44,0.00,CLR,,0.00,WeatherDisplay:10.37,2013-08-25 20:02:00,
2013-08-25 16:07:00,79.4,54.3,30.27,West,277,9.3,9.3,42,0.00,CLR,,0.00,WeatherDisplay:10.37,2013-08-25 20:07:00,
2013-08-25 16:12:00,79.3,52.9,30.27,WSW,237,6.3,6.3,40,0.00,CLR,,0.00,WeatherDisplay:10.37,2013-08-25 20:12:00,
2013-08-25 16:17:00,79.3,54.3,30.27,WSW,258,6.2,6.2,42,0.00,CLR,,0.00,WeatherDisplay:10.37,2013-08-25 20:17:00,
2013-08-25 16:22:00,79.0,54.6,30.26,SW,222,6.3,6.3,43,0.00,CLR,,0.00,WeatherDisplay:10.37,2013-08-25 20:22:00,
2013-08-25 16:27:00,79.2,54.2,30.26,South,171,4.2,4.2,42,0.00,CLR,,0.00,WeatherDisplay:10.37,2013-08-25 20:27:00,
2013-08-25 16:32:00,78.7,54.4,30.26,WSW,250,7.6,7.6,43,0.00,CLR,,0.00,WeatherDisplay:10.37,2013-08-25 20:32:00,
2013-08-25 16:37:00,79.0,53.3,30.26,NW,312,5.8,5.8,41,0.00,CLR,,0.00,WeatherDisplay:10.37,2013-08-25 20:37:00,
2013-08-25 16:42:00,78.9,53.9,30.26,West,281,5.8,5.8,42,0.00,CLR,,0.00,WeatherDisplay:10.37,2013-08-25 20:42:00,
2013-08-25 16:47:00,79.2,55.4,30.25,West,274,8.1,8.1,44,0.00,CLR,,0.00,WeatherDisplay:10.37,2013-08-25 20:47:00,
2013-08-25 16:52:00,79.3,54.9,30.25,WNW,288,6.1,6.1,43,0.00,CLR,,0.00,WeatherDisplay:10.37,2013-08-25 20:52:00,
2013-08-25 16:57:00,78.8,55.1,30.25,WSW,250,3.5,3.5,44,0.00,CLR,,0.00,WeatherDisplay:10.37,2013-08-25 20:57:00,
2013-08-25 17:02:00,78.9,55.8,30.25,WSW,258,10.6,10.6,45,0.00,CLR,,0.00,WeatherDisplay:10.37,2013-08-25 21:02:00,
2013-08-25 17:07:00,78.7,56.8,30.25,NNE,32,5.8,5.8,47,0.00,CLR,,0.00,WeatherDisplay:10.37,2013-08-25 21:07:00,
2013-08-25 17:12:00,78.5,56.0,30.25,WSW,258,4.6,4.6,46,0.00,CLR,,0.00,WeatherDisplay:10.37,2013-08-25 21:12:00,
2013-08-25 17:17:00,78.3,57.6,30.25,WNW,285,4.2,4.2,49,0.00,CLR,,0.00,WeatherDisplay:10.37,2013-08-25 21:17:00,
2013-08-25 17:22:00,77.9,56.1,30.24,SW,230,5.8,5.8,47,0.00,CLR,,0.00,WeatherDisplay:10.37,2013-08-25 21:22:00,
2013-08-25 17:27:00,77.6,55.8,30.24,WNW,302,6.9,6.9,47,0.00,CLR,,0.00,WeatherDisplay:10.37,2013-08-25 21:27:00,
2013-08-25 17:32:00,77.6,58.6,30.24,WNW,285,6.9,6.9,52,0.00,CLR,,0.00,WeatherDisplay:10.37,2013-08-25 21:32:00,
2013-08-25 17:37:00,77.3,53.7,30.24,WNW,284,9.2,9.2,44,0.00,CLR,,0.00,WeatherDisplay:10.37,2013-08-25 21:37:00,
2013-08-25 17:42:00,77.3,54.3,30.23,West,271,9.2,9.2,45,0.00,CLR,,0.00,WeatherDisplay:10.37,2013-08-25 21:42:00,
2013-08-25 17:47:00,77.1,54.2,30.23,WSW,247,5.8,5.8,45,0.00,CLR,,0.00,WeatherDisplay:10.37,2013-08-25 21:47:00,
2013-08-25 17:52:00,76.8,55.7,30.23,West,264,5.8,5.8,48,0.00,CLR,,0.00,WeatherDisplay:10.37,2013-08-25 21:52:00,
2013-08-25 17:57:00,76.7,54.4,30.22,West,265,5.8,5.8,46,0.00,CLR,,0.00,WeatherDisplay:10.37,2013-08-25 21:57:00,
2013-08-25 18:02:00,76.5,56.5,30.22,WSW,250,4.6,4.6,50,0.00,CLR,,0.00,WeatherDisplay:10.37,2013-08-25 22:02:00,
2013-08-25 18:07:00,76.2,57.3,30.22,West,280,3.5,3.5,52,0.00,CLR,,0.00,WeatherDisplay:10.37,2013-08-25 22:07:00,
2013-08-25 18:12:00,75.9,57.6,30.22,WSW,247,3.5,3.5,53,0.00,CLR,,0.00,WeatherDisplay:10.37,2013-08-25 22:12:00,
2013-08-25 18:17:00,75.4,58.1,30.22,West,265,3.5,3.5,55,0.00,CLR,,0.00,WeatherDisplay:10.37,2013-08-25 22:17:00,
2013-08-25 18:22:00,75.2,58.0,30.22,WSW,248,4.6,4.6,55,0.00,CLR,,0.00,WeatherDisplay:10.37,2013-08-25 22:22:00,
2013-08-25 18:27:00,74.5,57.8,30.22,West,277,0.0,0.0,56,0.00,CLR,,0.00,WeatherDisplay:10.37,2013-08-25 22:27:00,
2013-08-25 18:32:00,74.3,58.6,30.22,West,267,0.0,0.0,58,0.00,CLR,,0.00,WeatherDisplay:10.37,2013-08-25 22:32:00,
2013-08-25 18:37:00,73.9,58.2,30.22,West,267,5.8,5.8,58,0.00,CLR,,0.00,WeatherDisplay:10.37,2013-08-25 22:37:00,
2013-08-25 18:42:00,73.5,57.9,30.21,WSW,241,0.0,0.0,58,0.00,CLR,,0.00,WeatherDisplay:10.37,2013-08-25 22:42:00,
2013-08-25 18:47:00,72.8,57.7,30.21,WNW,285,3.5,3.5,59,0.00,CLR,,0.00,WeatherDisplay:10.37,2013-08-25 22:47:00,
2013-08-25 18:52:00,72.6,57.5,30.22,SW,216,3.6,3.6,59,0.00,CLR,,0.00,WeatherDisplay:10.37,2013-08-25 22:52:00,
2013-08-25 18:57:00,72.0,57.4,30.22,SW,216,0.0,0.0,60,0.00,CLR,,0.00,WeatherDisplay:10.37,2013-08-25 22:57:00,
2013-08-25 19:03:00,71.9,57.3,30.21,SW,216,0.0,0.0,60,0.00,CLR,,0.00,WeatherDisplay:10.37,2013-08-25 23:03:00,
2013-08-25 19:08:00,71.1,57.5,30.21,WSW,258,3.5,3.5,62,0.00,CLR,,0.00,WeatherDisplay:10.37,2013-08-25 23:08:00,
2013-08-25 19:13:00,70.7,56.6,30.21,West,278,5.8,5.8,61,0.00,CLR,,0.00,WeatherDisplay:10.37,2013-08-25 23:13:00,
2013-08-25 19:18:00,70.2,56.6,30.22,WNW,287,4.8,4.8,62,0.00,CLR,,0.00,WeatherDisplay:10.37,2013-08-25 23:18:00,
2013-08-25 19:23:00,69.9,56.3,30.22,WSW,241,2.3,2.3,62,0.00,CLR,,0.00,WeatherDisplay:10.37,2013-08-25 23:23:00,
2013-08-25 19:28:00,69.5,55.9,30.22,West,278,3.7,3.7,62,0.00,CLR,,0.00,WeatherDisplay:10.37,2013-08-25 23:28:00,
2013-08-25 19:33:00,69.3,56.2,30.22,West,263,4.6,4.6,63,0.00,CLR,,0.00,WeatherDisplay:10.37,2013-08-25 23:33:00,
2013-08-25 19:38:00,68.9,55.8,30.22,West,263,6.5,6.5,63,0.00,CLR,,0.00,WeatherDisplay:10.37,2013-08-25 23:38:00,
2013-08-25 19:43:00,68.9,56.3,30.22,WSW,237,5.0,5.0,64,0.00,CLR,,0.00,WeatherDisplay:10.37,2013-08-25 23:43:00,
2013-08-25 19:48:00,68.9,56.3,30.22,WSW,250,4.6,0.0,64,0.00,CLR,,0.00,WeatherDisplay:10.37,2013-08-25 23:48:00,
2013-08-25 19:53:00,68.5,55.4,30.22,SW,230,4.7,4.7,63,0.00,CLR,,0.00,WeatherDisplay:10.37,2013-08-25 23:53:00,
2013-08-25 19:58:00,68.7,54.7,30.22,WNW,282,5.8,5.8,61,0.00,CLR,,0.00,WeatherDisplay:10.37,2013-08-25 23:58:00,
2013-08-25 20:03:00,68.6,55.1,30.22,WSW,257,4.6,4.6,62,0.00,CLR,,0.00,WeatherDisplay:10.37,2013-08-26 00:03:00,
2013-08-25 20:08:00,68.7,55.2,30.22,WNW,282,4.7,4.7,62,0.00,CLR,,0.00,WeatherDisplay:10.37,2013-08-26 00:08:00,
2013-08-25 20:13:00,68.7,54.7,30.22,WSW,253,4.6,4.6,61,0.00,CLR,,0.00,WeatherDisplay:10.37,2013-08-26 00:13:00,
2013-08-25 20:18:00,68.7,55.6,30.22,WSW,253,0.0,0.0,63,0.00,CLR,,0.00,WeatherDisplay:10.37,2013-08-26 00:18:00,
2013-08-25 20:23:00,68.6,55.5,30.22,WSW,253,0.0,0.0,63,0.00,CLR,,0.00,WeatherDisplay:10.37,2013-08-26 00:23:00,
2013-08-25 20:28:00,68.5,55.9,30.23,West,271,1.9,1.9,64,0.00,CLR,,0.00,WeatherDisplay:10.37,2013-08-26 00:28:00,
2013-08-25 20:33:00,68.2,56.0,30.22,WSW,258,2.7,2.7,65,0.00,CLR,,0.00,WeatherDisplay:10.37,2013-08-26 00:33:00,
2013-08-25 20:38:00,67.8,55.6,30.22,WSW,250,5.0,5.0,65,0.00,CLR,,0.00,WeatherDisplay:10.37,2013-08-26 00:38:00,
2013-08-25 20:43:00,67.7,55.1,30.22,WNW,282,4.4,4.4,64,0.00,CLR,,0.00,WeatherDisplay:10.37,2013-08-26 00:43:00,
2013-08-25 20:48:00,67.4,54.8,30.22,WNW,291,5.8,5.8,64,0.00,CLR,,0.00,WeatherDisplay:10.37,2013-08-26 00:48:00,
2013-08-25 20:53:00,67.4,54.8,30.22,WNW,285,4.7,4.7,64,0.00,CLR,,0.00,WeatherDisplay:10.37,2013-08-26 00:53:00,
2013-08-25 20:58:00,67.7,54.7,30.22,West,275,5.8,5.8,63,0.00,CLR,,0.00,WeatherDisplay:10.37,2013-08-26 00:58:00,
2013-08-25 21:03:00,67.7,54.2,30.22,West,270,6.9,6.9,62,0.00,CLR,,0.00,WeatherDisplay:10.37,2013-08-26 01:03:00,
2013-08-25 21:08:00,67.6,54.2,30.22,West,264,5.8,5.8,62,0.00,CLR,,0.00,WeatherDisplay:10.37,2013-08-26 01:08:00,
2013-08-25 21:13:00,67.7,53.8,30.22,NW,312,4.6,4.6,61,0.00,CLR,,0.00,WeatherDisplay:10.37,2013-08-26 01:13:00,
2013-08-25 21:18:00,67.7,54.2,30.22,WSW,244,6.9,6.9,62,0.00,CLR,,0.00,WeatherDisplay:10.37,2013-08-26 01:18:00,
2013-08-25 21:23:00,68.0,54.5,30.23,West,280,5.8,5.8,62,0.00,CLR,,0.00,WeatherDisplay:10.37,2013-08-26 01:23:00,
2013-08-25 21:28:00,67.8,53.9,30.22,WNW,299,3.9,3.9,61,0.00,CLR,,0.00,WeatherDisplay:10.37,2013-08-26 01:28:00,
2013-08-25 21:33:00,67.7,54.2,30.23,West,280,4.5,4.5,62,0.00,CLR,,0.00,WeatherDisplay:10.37,2013-08-26 01:33:00,
2013-08-25 21:39:00,67.6,54.6,30.23,SW,233,5.8,5.8,63,0.00,CLR,,0.00,WeatherDisplay:10.37,2013-08-26 01:39:00,
2013-08-25 21:44:00,67.4,54.4,30.22,WSW,244,2.6,2.6,63,0.00,CLR,,0.00,WeatherDisplay:10.37,2013-08-26 01:44:00,
2013-08-25 21:49:00,67.4,54.4,30.22,SW,230,4.7,4.7,63,0.00,CLR,,0.00,WeatherDisplay:10.37,2013-08-26 01:49:00,
2013-08-25 21:54:00,67.3,55.2,30.22,West,277,5.9,5.9,65,0.00,CLR,,0.00,WeatherDisplay:10.37,2013-08-26 01:54:00,
2013-08-25 21:59:00,67.2,55.1,30.22,SW,236,3.5,3.5,65,0.00,CLR,,0.00,WeatherDisplay:10.37,2013-08-26 01:59:00,
2013-08-25 22:04:00,67.1,55.0,30.22,West,261,7.0,7.0,65,0.00,CLR,,0.00,WeatherDisplay:10.37,2013-08-26 02:04:00,
2013-08-25 22:09:00,67.4,54.8,30.22,NW,319,5.0,5.0,64,0.00,CLR,,0.00,WeatherDisplay:10.37,2013-08-26 02:09:00,
2013-08-25 22:14:00,67.8,55.2,30.22,WNW,284,2.3,2.3,64,0.00,CLR,,0.00,WeatherDisplay:10.37,2013-08-26 02:14:00,
2013-08-25 22:19:00,67.9,54.9,30.22,SW,220,3.5,3.5,63,0.00,CLR,,0.00,WeatherDisplay:10.37,2013-08-26 02:19:00,
2013-08-25 22:24:00,68.3,55.7,30.22,NW,316,2.3,2.3,64,0.00,CLR,,0.00,WeatherDisplay:10.37,2013-08-26 02:24:00,
2013-08-25 22:29:00,68.5,55.4,30.22,WSW,243,0.0,0.0,63,0.00,CLR,,0.00,WeatherDisplay:10.37,2013-08-26 02:29:00,
2013-08-25 22:34:00,68.6,56.0,30.22,SSW,205,5.8,5.8,64,0.00,CLR,,0.00,WeatherDisplay:10.37,2013-08-26 02:34:00,
2013-08-25 22:39:00,68.6,56.0,30.22,WSW,239,3.5,3.5,64,0.00,CLR,,0.00,WeatherDisplay:10.37,2013-08-26 02:39:00,
2013-08-25 22:44:00,68.5,55.9,30.22,WNW,282,3.4,3.4,64,0.00,CLR,,0.00,WeatherDisplay:10.37,2013-08-26 02:44:00,
2013-08-25 22:49:00,68.7,55.6,30.21,WSW,246,5.8,5.8,63,0.00,CLR,,0.00,WeatherDisplay:10.37,2013-08-26 02:49:00,
2013-08-25 22:54:00,68.6,56.0,30.21,WSW,256,9.4,9.4,64,0.00,CLR,,0.00,WeatherDisplay:10.37,2013-08-26 02:54:00,
2013-08-25 22:59:00,68.6,56.0,30.21,SW,236,8.1,8.1,64,0.00,CLR,,0.00,WeatherDisplay:10.37,2013-08-26 02:59:00,
2013-08-25 23:04:00,68.7,55.6,30.21,NW,306,1.2,1.2,63,0.00,CLR,,0.00,WeatherDisplay:10.37,2013-08-26 03:04:00,
2013-08-25 23:09:00,68.9,56.3,30.21,WSW,258,5.8,5.8,64,0.00,CLR,,0.00,WeatherDisplay:10.37,2013-08-26 03:09:00,
2013-08-25 23:14:00,69.0,56.4,30.21,WSW,241,6.5,6.5,64,0.00,CLR,,0.00,WeatherDisplay:10.37,2013-08-26 03:14:00,
2013-08-25 23:19:00,69.0,56.4,30.21,NW,306,6.9,6.9,64,0.00,CLR,,0.00,WeatherDisplay:10.37,2013-08-26 03:19:00,
2013-08-25 23:25:00,68.9,56.3,30.21,WSW,258,3.7,3.7,64,0.00,CLR,,0.00,WeatherDisplay:10.37,2013-08-26 03:25:00,
2013-08-25 23:30:00,68.9,55.8,30.21,SSW,210,4.9,4.9,63,0.00,CLR,,0.00,WeatherDisplay:10.37,2013-08-26 03:30:00,
2013-08-25 23:35:00,69.2,56.1,30.21,West,264,0.0,0.0,63,0.00,CLR,,0.00,WeatherDisplay:10.37,2013-08-26 03:35:00,
2013-08-25 23:40:00,69.2,56.1,30.21,SW,223,2.3,2.3,63,0.00,CLR,,0.00,WeatherDisplay:10.37,2013-08-26 03:40:00,
2013-08-25 23:45:00,69.1,56.0,30.21,SW,233,2.3,0.0,63,0.00,CLR,,0.00,WeatherDisplay:10.37,2013-08-26 03:45:00,
2013-08-25 23:50:00,69.0,56.4,30.21,West,261,1.5,1.5,64,0.00,CLR,,0.00,WeatherDisplay:10.37,2013-08-26 03:50:00,
2013-08-25 23:55:00,69.0,56.4,30.22,West,272,0.0,0.0,64,0.00,CLR,,0.00,WeatherDisplay:10.37,2013-08-26 03:55:00,